Lake Village, AR

7:55 AM CST on January 19, 2017 (GMT -0600)
Q102 Downtown Greenville | | Change Station

Elev 141 ft 33.41 °N, 91.06 °W | Updated 1 minute ago

Overcast
Overcast
59.7 °F
Feels Like 59.7 °F
N
2.7
Wind Variable Wind from North
Gusts 2.7 mph

Today
High -- | Low -- °F
--% Chance of Precip.
Yesterday
High -- | Low -- °F
Precip. -- in
Pressure 29.88 in
Visibility 1.2 miles
Clouds Scattered Clouds 400 ft
Mostly Cloudy 1500 ft
Overcast 2300 ft
Dew Point 59 °F
Humidity 99%
Rainfall 2.56 in
Snow Depth Not available.
7:07 AM 5:24 PM
Waning Gibbous, 53% visible
METAR KGLH 191353Z AUTO 30008KT 1 1/4SM +RA BR SCT004 BKN015 OVC023 14/13 A2986 RMK AO2 LTG DSNT NE TSB08E23 SLP117 P0120 T01440128
Pressure 29.88 in
Visibility 1.2 miles
Clouds Scattered Clouds 400 ft
Mostly Cloudy 1500 ft
Overcast 2300 ft
Dew Point 59 °F
Humidity 99%
Rainfall 2.56 in
Snow Depth Not available.
7:07 AM 5:24 PM
Waning Gibbous, 53% visible
METAR KGLH 191353Z AUTO 30008KT 1 1/4SM +RA BR SCT004 BKN015 OVC023 14/13 A2986 RMK AO2 LTG DSNT NE TSB08E23 SLP117 P0120 T01440128

Get Your Daily Forecast Email!

Thanks for signing up!

Be on the lookout for a verification email in your inbox.

You'll start receiving the daily forecast at 8 AM.

×

10-Day Weather Forecast

Almanac

Astronomy

Jan. 19, 2017 Rise Set
Actual Time
Civil Twilight
Nautical Twilight
Astronomical Twilight
Moon
Length of Visible Light
Length of Day
Tomorrow will be .
, % of the Moon is Illuminated

Today's Extremes

State Highs State Lows

Community

WunderPhotos

Upload Photos

1,962,540 photos uploaded!

WunderBlog® & News

Nearby

Air Quality

  Air Quality AQ Index Pollutant
Not available.

Snow Depth

Station Depth Elevation

Earthquake Activity

City Distance Mag. Time & Date
Minimum magnitude displayed is 2.5.

Coastal Water Temperatures

Place Temperature

Stations

Nearby Weather Stations

Station Location Temp. Windchill Dew Point Humidity Wind Precip. Elev Updated Type
                   

Watches & Warnings

There are currently no watches in effect.